Time;durP1;ratioP1;P1;durP2;ratioP2;P2;SDS_P1;SDS_P2;PMS_P1;PMS_P2;Temp;Humidity;BMP_temperature;BMP_pressure;BME280_temperature;BME280_humidity;BME280_pressure;Samples;Min_cycle;Max_cycle;Signal;HPM_P1;HPM_P2
2022/12/27 00:02:31;;;;;;;3.22;0.95;;;10.10;59.30;;;8.84;65.47;101342.25;12255647;19;20025;-82
2022/12/27 00:06:34;;;;;;;3.95;1.27;;;10.10;59.30;;;8.47;65.69;101279.44;12255359;19;20017;-82
2022/12/27 00:10:36;;;;;;;1.83;0.88;;;10.30;59.50;;;8.46;65.50;101291.63;12252555;19;20027;-82
2022/12/27 00:14:38;;;;;;;3.92;1.27;;;10.00;59.40;;;8.81;65.48;101352.78;12255899;19;20022;-82
2022/12/27 00:18:41;;;;;;;1.50;1.00;;;10.00;59.10;;;8.45;65.54;101307.28;12255015;19;20010;-82
2022/12/27 00:22:43;;;;;;;2.75;1.35;;;10.00;59.10;;;8.66;65.57;101358.56;12255720;19;20353;-82
2022/12/27 00:26:45;;;;;;;3.55;1.00;;;10.00;59.40;;;8.72;65.65;101381.78;12253845;19;20022;-82
2022/12/27 00:30:54;;;;;;;1.85;0.80;;;9.90;59.40;;;8.70;65.49;101380.97;12251111;19;20018;-82
2022/12/27 00:34:56;;;;;;;3.13;1.13;;;10.10;59.30;;;8.33;65.56;101327.63;12255871;19;20342;-82
2022/12/27 00:38:59;;;;;;;4.65;1.10;;;9.90;59.40;;;8.63;65.41;101380.34;12253441;19;20025;-82
2022/12/27 00:43:01;;;;;;;1.60;0.80;;;10.10;59.50;;;8.64;65.46;101400.28;12253575;19;20030;-82
2022/12/27 00:47:02;;;;;;;3.78;0.93;;;9.90;59.30;;;8.53;65.45;101384.22;12253172;19;20014;-82
2022/12/27 00:51:13;;;;;;;10.13;1.58;;;9.80;59.30;;;8.57;65.49;101413.56;12248685;19;20066;-83
2022/12/27 00:55:15;;;;;;;3.25;1.38;;;9.80;59.30;;;8.54;65.21;101411.94;12251484;19;20014;-82
2022/12/27 00:59:17;;;;;;;2.20;1.45;;;9.80;59.30;;;8.50;65.28;101407.72;12250777;19;20018;-82
2022/12/27 01:03:19;;;;;;;3.70;0.88;;;9.70;59.40;;;8.45;65.42;101408.78;12253164;19;20022;-82
2022/12/27 01:07:21;;;;;;;2.55;1.30;;;9.70;59.20;;;8.19;65.27;101372.34;12251174;19;20014;-82
2022/12/27 01:11:25;;;;;;;2.63;1.10;;;9.70;59.30;;;8.40;65.17;101435.84;12248675;19;20026;-82
2022/12/27 01:15:28;;;;;;;2.50;0.80;;;9.60;59.20;;;8.34;65.37;101425.59;12250941;19;20066;-82
2022/12/27 01:19:30;;;;;;;2.25;1.00;;;9.60;59.30;;;8.36;65.18;101439.41;12249992;19;20014;-82
2022/12/27 01:23:32;;;;;;;1.90;0.80;;;9.60;59.40;;;8.23;65.24;101432.06;12251506;19;20017;-82
2022/12/27 01:27:34;;;;;;;1.92;0.82;;;9.50;59.30;;;8.17;65.24;101436.56;12249922;19;20078;-82
2022/12/27 01:31:35;;;;;;;4.95;1.05;;;9.50;59.40;;;8.25;65.11;101462.34;12248497;19;20096;-82
2022/12/27 01:35:37;;;;;;;5.35;1.05;;;9.50;59.30;;;8.16;64.93;101457.47;12251264;19;20093;-82
2022/12/27 01:39:39;;;;;;;5.47;1.60;;;9.50;59.40;;;8.16;64.95;101475.66;12248553;19;20010;-82
2022/12/27 01:43:41;;;;;;;3.03;1.00;;;9.30;59.40;;;8.06;65.13;101480.31;12250018;19;20027;-83
2022/12/27 01:48:20;;;;;;;2.63;1.08;;;9.30;59.30;;;7.83;64.85;101460.25;12251096;19;20010;-82
2022/12/27 01:52:26;;;;;;;3.72;1.83;;;9.20;59.40;;;7.86;65.16;101469.72;12248538;19;20014;-82
2022/12/27 01:56:30;;;;;;;1.90;1.35;;;9.20;59.40;;;7.50;64.96;101439.59;12246709;19;20010;-82
2022/12/27 02:00:32;;;;;;;1.30;0.87;;;9.10;59.50;;;7.74;65.17;101484.78;12245740;19;20010;-82
2022/12/27 02:04:37;;;;;;;1.05;0.80;;;9.00;59.60;;;7.66;65.05;101483.31;12244929;19;20605;-82
2022/12/27 02:09:05;;;;;;;2.70;0.95;;;9.00;59.60;;;7.60;65.12;101484.38;12242306;19;20394;-82
2022/12/27 02:13:07;;;;;;;4.22;1.63;;;9.00;59.80;;;7.60;65.04;101492.16;12245608;19;20010;-82
2022/12/27 02:17:18;;;;;;;1.23;0.95;;;8.90;59.80;;;7.62;65.11;101492.97;12246748;19;20035;-82
2022/12/27 02:21:51;;;;;;;4.60;1.08;;;8.90;59.80;;;7.62;65.11;101508.56;12244614;19;20070;-82
2022/12/27 02:26:01;;;;;;;4.35;0.90;;;8.90;59.80;;;7.63;64.93;101530.22;12248663;19;20048;-82
2022/12/27 02:30:06;;;;;;;1.10;0.82;;;8.80;59.90;;;7.48;65.02;101529.78;12247324;19;20342;-82
2022/12/27 02:34:21;;;;;;;3.00;1.05;;;8.70;59.90;;;7.17;64.89;101472.66;12246701;19;20018;-82
2022/12/27 02:38:37;;;;;;;2.58;1.00;;;8.70;59.90;;;7.40;65.12;101520.47;12245016;19;20015;-82
2022/12/27 03:06:40;;;;;;;2.72;0.68;;;8.50;60.00;;;7.21;64.88;101547.00;12246702;19;20468;-82
2022/12/27 03:33:26;;;;;;;4.22;1.08;;;8.10;60.30;;;6.71;65.20;101543.16;12256102;19;20022;-82
2022/12/27 03:46:32;;;;;;;1.67;1.00;;;8.00;60.20;;;6.56;64.94;101545.28;12255689;19;20082;-82
2022/12/27 03:50:48;;;;;;;3.05;0.90;;;8.00;60.40;;;6.70;64.88;101588.16;12250305;19;20481;-81
2022/12/27 03:54:52;;;;;;;1.38;0.85;;;7.90;60.40;;;6.72;65.17;101588.97;12254489;19;20461;-81
2022/12/27 03:58:56;;;;;;;3.05;1.15;;;8.10;60.80;;;6.62;64.98;101578.00;12254017;19;20031;-82
2022/12/27 04:02:57;;;;;;;11.27;1.15;;;7.90;60.60;;;6.61;65.00;101584.91;12254919;19;20449;-82
2022/12/27 04:06:59;;;;;;;2.10;1.27;;;7.90;60.70;;;6.56;65.05;101581.59;12255183;19;20002;-82
2022/12/27 04:37:07;;;;;;;1.75;0.90;;;7.80;60.90;;;6.46;65.10;101589.66;12255105;19;20006;-82
2022/12/27 05:02:02;;;;;;;7.18;1.08;;;7.70;60.80;;;6.41;65.15;101602.72;12250223;19;20068;-82
2022/12/27 05:03:11;;;;;;;3.35;1.23;;;7.70;60.90;;;6.40;65.20;101607.06;12251645;19;20007;-82
2022/12/27 05:15:56;;;;;;;3.38;1.20;;;7.70;60.90;;;6.25;65.02;101586.66;12253111;19;20097;-82
2022/12/27 05:19:58;;;;;;;3.20;1.25;;;7.70;60.80;;;6.11;65.10;101566.25;12247935;19;20488;-82
2022/12/27 05:28:20;;;;;;;2.45;1.02;;;7.60;60.50;;;6.35;65.30;101621.03;12248834;19;20026;-81
2022/12/27 05:32:22;;;;;;;2.13;1.00;;;7.70;60.70;;;6.26;65.07;101611.69;12247622;19;20022;-82
2022/12/27 05:36:25;;;;;;;3.33;1.73;;;7.60;60.50;;;6.24;65.11;101607.44;12248796;19;20027;-82
2022/12/27 05:40:27;;;;;;;5.05;1.20;;;7.60;60.30;;;6.26;65.08;101610.84;12245777;19;20014;-82
2022/12/27 05:44:29;;;;;;;3.83;1.20;;;7.60;60.40;;;6.29;65.28;101631.53;12250064;19;20078;-82
2022/12/27 05:48:32;;;;;;;0.98;0.88;;;7.60;60.40;;;5.95;65.36;101580.44;12249115;19;20468;-82
2022/12/27 05:52:34;;;;;;;2.58;1.00;;;7.60;60.50;;;6.25;65.14;101632.50;12250067;19;20386;-82
2022/12/27 05:56:36;;;;;;;3.47;1.52;;;7.60;60.30;;;6.22;65.25;101635.16;12248994;19;20481;-82
2022/12/27 06:00:38;;;;;;;1.65;0.95;;;7.50;60.30;;;6.25;65.38;101643.72;12250558;19;20030;-82
2022/12/27 06:04:39;;;;;;;3.58;0.98;;;7.70;60.40;;;6.25;65.20;101641.13;12248459;19;20025;-81
2022/12/27 06:08:41;;;;;;;21.50;1.13;;;7.60;60.40;;;6.20;65.16;101641.22;12247409;19;20033;-82
2022/12/27 06:12:43;;;;;;;3.33;1.00;;;7.50;60.30;;;6.15;65.10;101630.09;12248457;19;20021;-82
2022/12/27 06:16:45;;;;;;;2.80;1.20;;;7.50;60.40;;;6.22;65.30;101654.16;12248419;19;20002;-82
2022/12/27 06:20:46;;;;;;;1.88;0.73;;;7.50;60.20;;;6.20;65.17;101651.59;12246268;19;20038;-82
2022/12/27 06:24:48;;;;;;;3.63;0.80;;;7.70;60.40;;;6.13;65.16;101636.19;12248477;19;20044;-82
2022/12/27 06:28:50;;;;;;;1.13;0.93;;;7.50;60.10;;;6.10;65.01;101638.88;12246543;19;20034;-82
2022/12/27 06:32:52;;;;;;;1.75;0.98;;;7.50;60.20;;;5.98;65.04;101614.91;12245945;19;20039;-81
2022/12/27 06:36:54;;;;;;;0.80;0.80;;;7.50;60.10;;;6.07;65.18;101638.94;12247993;19;20019;-82
2022/12/27 06:41:01;;;;;;;3.30;1.50;;;7.50;60.00;;;6.14;65.10;101663.84;12242377;19;20473;-82
2022/12/27 06:45:05;;;;;;;2.78;1.30;;;7.50;60.00;;;6.03;65.21;101647.69;12245317;19;20053;-82
2022/12/27 06:49:10;;;;;;;1.40;1.27;;;7.50;60.00;;;6.00;64.95;101646.00;12246389;19;20022;-81
2022/12/27 06:53:11;;;;;;;2.47;1.00;;;7.40;60.00;;;5.97;65.14;101652.09;12245882;19;20021;-82
2022/12/27 06:57:13;;;;;;;2.72;1.00;;;7.50;60.00;;;5.83;65.05;101629.91;12247677;19;20014;-82
2022/12/27 07:01:25;;;;;;;1.92;1.17;;;7.40;60.00;;;5.83;64.90;101638.53;12241424;19;20242;-81
2022/12/27 07:05:26;;;;;;;1.08;1.00;;;7.40;60.00;;;6.01;65.18;101673.63;12245847;19;20010;-82
2022/12/27 07:09:28;;;;;;;3.85;1.10;;;7.30;60.00;;;5.97;65.17;101678.03;12246321;19;20022;-83
2022/12/27 07:13:37;;;;;;;2.45;1.52;;;7.30;60.10;;;5.96;65.16;101678.91;12247201;19;20070;-82
2022/12/27 07:17:39;;;;;;;3.05;1.42;;;7.30;60.00;;;5.91;65.18;101680.72;12245386;19;20019;-82
2022/12/27 07:21:41;;;;;;;2.17;1.00;;;7.30;60.10;;;5.93;65.04;101691.94;12242973;19;20488;-84
2022/12/27 07:25:43;;;;;;;1.30;1.20;;;7.60;60.40;;;5.92;64.97;101692.78;12248701;19;20367;-82
2022/12/27 07:29:45;;;;;;;4.53;1.35;;;7.30;60.00;;;5.81;65.11;101692.16;12245243;19;20015;-82
2022/12/27 07:33:47;;;;;;;3.28;1.40;;;7.20;60.00;;;5.89;65.07;101716.19;12245090;19;20015;-81
2022/12/27 07:37:49;;;;;;;3.80;1.10;;;7.30;60.20;;;5.76;65.21;101700.00;12246348;19;20465;-82
2022/12/27 07:41:51;;;;;;;3.25;1.05;;;7.20;60.20;;;5.81;65.25;101709.47;12241379;19;20039;-81
2022/12/27 07:45:53;;;;;;;2.72;1.40;;;7.30;60.50;;;5.65;65.19;101696.78;12246560;19;20023;-82
2022/12/27 07:49:55;;;;;;;3.20;1.08;;;7.30;60.20;;;5.92;65.09;101736.00;12243324;19;20532;-81
2022/12/27 07:53:56;;;;;;;1.38;1.00;;;7.30;60.40;;;5.88;65.26;101734.34;12243853;19;20015;-82
2022/12/27 07:57:58;;;;;;;2.00;1.20;;;7.30;60.40;;;5.98;65.34;101759.25;12244806;19;20025;-82
2022/12/27 08:02:03;;;;;;;1.65;1.25;;;7.30;60.30;;;5.94;65.23;101761.06;12242686;19;20465;-82
2022/12/27 08:06:06;;;;;;;1.20;1.10;;;7.30;60.30;;;6.01;65.28;101766.97;12256953;19;20026;-81
2022/12/27 08:10:09;;;;;;;1.10;1.00;;;7.30;60.40;;;5.93;65.08;101753.25;12253467;19;20034;-82
2022/12/27 08:14:11;;;;;;;3.95;1.10;;;7.40;60.10;;;5.91;65.08;101747.25;12255531;19;20022;-83
2022/12/27 08:18:12;;;;;;;1.90;0.93;;;7.40;60.40;;;6.04;65.12;101761.72;12256455;19;20051;-82
2022/12/27 08:22:14;;;;;;;0.93;0.93;;;7.40;60.20;;;6.01;65.17;101758.34;12255763;19;20025;-83
2022/12/27 08:26:15;;;;;;;2.63;1.00;;;7.40;60.10;;;5.79;65.09;101724.19;12256362;19;20017;-82
2022/12/27 08:30:18;;;;;;;2.47;1.40;;;7.50;60.10;;;6.10;65.25;101769.41;12252449;19;20046;-82
2022/12/27 08:34:20;;;;;;;2.38;1.05;;;7.50;60.20;;;6.15;65.32;101780.50;12256415;19;20014;-82
2022/12/27 08:38:22;;;;;;;1.50;0.90;;;7.50;60.10;;;6.01;65.26;101745.38;12255002;19;20369;-82
2022/12/27 08:42:24;;;;;;;1.67;1.17;;;7.60;60.10;;;5.82;65.22;101719.78;12253322;19;20081;-82
2022/12/27 08:46:26;;;;;;;1.73;1.45;;;7.50;60.10;;;6.21;65.25;101779.53;12253340;19;20078;-81
2022/12/27 08:50:29;;;;;;;2.13;1.13;;;7.60;60.30;;;6.16;65.13;101771.84;12250617;19;20101;-82
2022/12/27 08:54:30;;;;;;;2.17;1.13;;;7.60;60.40;;;5.94;65.23;101729.06;12252079;19;20094;-84
2022/12/27 08:58:32;;;;;;;1.42;1.02;;;7.60;60.30;;;6.25;65.13;101780.34;12251184;19;20033;-83
2022/12/27 09:02:36;;;;;;;4.03;1.10;;;7.60;60.20;;;6.32;65.15;101781.91;12255652;19;20498;-82
2022/12/27 09:06:39;;;;;;;2.03;1.17;;;7.70;60.30;;;6.14;65.08;101752.88;12261250;19;20028;-82
2022/12/27 09:10:41;;;;;;;1.45;1.35;;;7.70;60.30;;;6.34;65.14;101795.69;12255243;19;20026;-82
2022/12/27 09:14:43;;;;;;;1.65;0.95;;;7.70;60.20;;;6.41;65.10;101802.47;12256969;19;20053;-82
2022/12/27 09:18:48;;;;;;;1.67;1.20;;;7.80;60.40;;;6.41;65.04;101797.28;12255015;19;20019;-82
2022/12/27 09:22:50;;;;;;;1.70;1.00;;;8.00;60.50;;;6.42;65.29;101796.41;12253757;19;20078;-83
2022/12/27 09:26:52;;;;;;;1.67;1.17;;;7.80;60.20;;;6.49;65.27;101800.59;12270587;19;20018;-83
2022/12/27 09:30:55;;;;;;;1.98;1.40;;;7.90;60.30;;;6.46;65.10;101785.09;12277175;19;20027;-84
2022/12/27 09:34:57;;;;;;;3.08;1.35;;;7.90;60.20;;;6.30;65.08;101763.78;12260943;19;20067;-81
2022/12/27 09:38:59;;;;;;;2.53;1.52;;;7.90;60.20;;;6.55;65.06;101803.03;12250870;19;20477;-82
2022/12/27 09:43:13;;;;;;;1.85;1.30;;;8.00;60.40;;;6.50;65.09;101791.91;12254298;19;20010;-81
2022/12/27 09:47:26;;;;;;;2.08;1.50;;;7.90;60.20;;;6.55;65.11;101792.66;12251840;19;20025;-82
2022/12/27 09:51:42;;;;;;;1.25;1.05;;;8.00;60.50;;;6.59;65.06;101799.50;12249119;19;20010;-82
2022/12/27 09:55:54;;;;;;;1.17;1.10;;;8.00;60.50;;;6.61;65.29;101784.75;12251232;19;20102;-81
2022/12/27 10:00:00;;;;;;;1.85;1.17;;;8.00;60.50;;;6.76;65.32;101804.34;12249554;19;20018;-81
2022/12/27 10:04:02;;;;;;;;;;;8.10;60.60;;;6.68;65.21;101789.81;12251889;19;20026;-82
2022/12/27 10:08:32;;;;;;;2.03;1.25;;;8.20;60.80;;;6.83;65.38;101797.25;12250445;19;19914;-81
2022/12/27 10:13:22;;;;;;;2.58;1.33;;;8.20;60.20;;;6.93;65.23;101803.09;12248774;19;20011;-82
2022/12/27 10:17:45;;;;;;;2.30;1.70;;;8.30;60.60;;;7.05;65.39;101795.03;12247380;19;20014;-82
2022/12/27 10:22:46;;;;;;;1.50;1.10;;;8.40;60.30;;;7.12;65.31;101796.59;12246086;19;20497;-83
2022/12/27 10:26:52;;;;;;;1.35;1.25;;;8.50;60.70;;;7.23;65.37;101801.53;12244424;19;20014;-82
2022/12/27 10:30:54;;;;;;;4.10;1.30;;;8.60;60.90;;;7.28;65.30;101804.88;12245032;19;20489;-82
2022/12/27 10:35:00;;;;;;;3.67;1.60;;;8.80;61.10;;;7.24;65.20;101796.31;12252232;19;20002;-83
2022/12/27 10:39:04;;;;;;;;;;;8.70;60.50;;;7.30;65.32;101805.69;12249827;19;20022;-83
2022/12/27 10:43:42;;;;;;;2.92;1.88;;;8.80;60.60;;;7.48;65.12;101826.03;12254091;19;19919;-83
2022/12/27 10:47:44;;;;;;;2.30;1.50;;;8.90;60.40;;;7.51;65.40;101833.75;12250747;19;20031;-83
2022/12/27 10:51:48;;;;;;;2.92;2.25;;;8.90;60.40;;;7.53;65.25;101829.38;12244086;19;20603;-83
2022/12/27 10:55:49;;;;;;;5.97;2.00;;;9.00;59.80;;;7.64;65.29;101836.91;12247578;19;20363;-83
2022/12/27 11:00:21;;;;;;;2.78;1.67;;;9.00;60.30;;;7.66;65.10;101840.31;12245261;19;20085;-82
2022/12/27 11:04:23;;;;;;;2.58;1.50;;;9.10;60.40;;;7.63;65.09;101826.53;12246894;19;20035;-83
2022/12/27 11:08:25;;;;;;;3.03;1.92;;;9.10;60.50;;;7.64;65.15;101825.63;12247723;19;20019;-82
2022/12/27 11:12:29;;;;;;;1.95;1.52;;;9.30;60.50;;;7.84;65.31;101849.41;12245117;19;20031;-83
2022/12/27 11:16:33;;;;;;;3.25;1.70;;;9.20;60.40;;;7.52;65.35;101791.28;12247172;19;20014;-83
2022/12/27 11:20:46;;;;;;;3.92;2.10;;;9.30;60.50;;;7.85;65.11;101835.50;12241456;19;20019;-83
2022/12/27 11:24:50;;;;;;;3.33;1.85;;;9.30;60.20;;;7.94;65.33;101850.03;12243672;19;20039;-82
2022/12/27 11:28:57;;;;;;;2.27;1.70;;;9.30;59.90;;;7.88;65.06;101840.59;12243403;19;20010;-83
2022/12/27 11:33:26;;;;;;;4.47;1.83;;;9.40;60.00;;;8.01;65.04;101856.75;12247463;19;20041;-82
2022/12/27 11:37:27;;;;;;;3.10;1.40;;;9.40;59.90;;;8.04;65.14;101835.00;12246376;19;20051;-82
2022/12/27 11:41:49;;;;;;;2.08;1.48;;;9.50;59.90;;;8.00;64.86;101825.59;12255730;19;20717;-82
2022/12/27 11:45:53;;;;;;;4.22;1.73;;;9.50;59.70;;;8.08;65.11;101847.91;12257951;19;20353;-82
2022/12/27 11:50:19;;;;;;;3.28;1.85;;;9.50;59.50;;;8.12;64.92;101840.88;12257164;19;20017;-82
2022/12/27 11:54:48;;;;;;;;;;;9.50;59.60;;;8.11;64.87;101852.19;12259553;19;20010;-82
2022/12/27 11:59:48;;;;;;;1.90;1.30;;;9.50;59.70;;;8.09;65.00;101857.41;12256540;19;20082;-82
2022/12/27 12:04:17;;;;;;;2.45;1.30;;;9.50;59.60;;;8.14;64.89;101865.09;12262360;19;20014;-82
2022/12/27 12:08:47;;;;;;;1.75;1.60;;;9.50;59.80;;;8.12;64.98;101865.13;12264949;19;20018;-82
2022/12/27 12:13:22;;;;;;;2.58;1.60;;;9.60;59.70;;;8.19;64.97;101881.44;12258378;19;20021;-83
2022/12/27 12:17:47;;;;;;;1.93;1.37;;;9.60;59.60;;;8.06;64.71;101854.03;12260664;19;20007;-82
2022/12/27 12:22:34;;;;;;;1.55;1.30;;;9.60;59.70;;;8.24;65.03;101891.72;12251768;19;20047;-83
2022/12/27 12:27:27;;;;;;;1.80;1.58;;;9.60;59.30;;;8.23;64.93;101888.25;12259441;19;20091;-83
2022/12/27 12:32:06;;;;;;;2.70;1.55;;;9.60;58.30;;;8.25;64.72;101883.88;12252423;19;20022;-83
2022/12/27 12:36:20;;;;;;;2.45;1.58;;;9.60;59.20;;;8.29;64.96;101885.50;12260243;19;20397;-82
2022/12/27 12:40:44;;;;;;;1.90;1.70;;;9.60;59.20;;;8.31;64.64;101895.88;12253691;19;20536;-82
2022/12/27 12:45:34;;;;;;;1.55;1.45;;;9.60;59.20;;;8.31;64.77;101891.50;12258448;19;19999;-82
2022/12/27 12:50:27;;;;;;;3.47;2.05;;;9.70;59.30;;;8.34;64.80;101890.56;12252831;19;20046;-81
2022/12/27 12:55:02;;;;;;;3.05;2.08;;;9.70;59.50;;;8.37;64.76;101891.34;12259899;19;20039;-82
2022/12/27 12:59:26;;;;;;;5.00;2.08;;;9.80;59.00;;;8.39;64.86;101892.19;12256285;19;20015;-82
2022/12/27 13:04:21;;;;;;;5.35;1.80;;;9.70;59.20;;;8.39;64.57;101904.34;12259666;19;20010;-82
2022/12/27 13:08:40;;;;;;;2.40;1.48;;;9.80;59.00;;;8.45;64.75;101911.13;12257745;19;20031;-81
2022/12/27 13:13:05;;;;;;;2.47;1.70;;;9.80;59.20;;;8.47;64.79;101910.19;12259424;19;20010;-81
2022/12/27 13:17:42;;;;;;;2.10;1.60;;;9.80;59.20;;;8.50;64.46;101919.66;12262036;19;20018;-81
2022/12/27 13:22:15;;;;;;;3.78;1.55;;;9.90;59.20;;;8.51;64.47;101929.22;12253532;19;20014;-81
2022/12/27 13:26:51;;;;;;;2.75;1.58;;;9.90;59.30;;;8.53;64.68;101922.19;12257313;19;20010;-82
2022/12/27 13:31:21;;;;;;;3.63;1.63;;;9.90;59.40;;;8.55;64.65;101925.63;12252362;19;20026;-81
2022/12/27 13:35:50;;;;;;;2.65;1.77;;;9.90;59.10;;;8.57;64.44;101926.44;12257281;19;20018;-81
2022/12/27 13:40:17;;;;;;;4.03;1.85;;;9.90;58.20;;;8.56;64.39;101924.69;12250381;19;20019;-81
2022/12/27 13:44:21;;;;;;;4.85;1.85;;;9.90;59.10;;;8.64;64.46;101935.75;12249145;19;20070;-82
2022/12/27 13:48:56;;;;;;;2.17;1.97;;;10.00;59.20;;;8.59;64.42;101935.06;12248163;19;20006;-82
2022/12/27 13:53:23;;;;;;;7.63;1.92;;;10.00;59.10;;;8.62;64.42;101934.97;12257296;19;20033;-82
2022/12/27 13:57:43;;;;;;;2.33;1.63;;;10.00;59.10;;;8.66;64.47;101931.38;12260488;19;20031;-81
2022/12/27 14:02:33;;;;;;;3.72;1.70;;;10.00;59.00;;;8.61;64.30;101926.31;12254787;19;20082;-82
2022/12/27 14:07:49;;;;;;;3.63;2.05;;;10.00;59.00;;;8.61;64.38;101944.53;12261049;19;20015;-81
2022/12/27 14:12:51;;;;;;;2.70;1.80;;;10.00;58.90;;;8.60;64.40;101939.38;12251877;19;20041;-82
2022/12/27 14:17:23;;;;;;;4.72;1.90;;;10.00;58.60;;;8.63;64.42;101945.31;12253062;19;20014;-81
2022/12/27 14:21:52;;;;;;;2.72;1.73;;;10.00;58.70;;;8.61;64.36;101935.84;12253746;19;20011;-81
2022/12/27 14:26:47;;;;;;;4.15;2.03;;;10.00;58.70;;;8.64;64.11;101943.56;12257256;19;20062;-82
2022/12/27 14:31:26;;;;;;;2.03;1.55;;;10.00;58.70;;;8.64;64.35;101949.66;12256986;19;20022;-81
2022/12/27 14:36:26;;;;;;;2.15;1.40;;;10.00;58.60;;;8.63;64.09;101960.09;12259132;19;20508;-81
2022/12/27 14:41:04;;;;;;;1.75;1.50;;;10.00;58.70;;;8.62;64.17;101974.03;12258935;19;20011;-82
2022/12/27 14:45:51;;;;;;;1.83;1.65;;;10.00;58.70;;;8.60;64.05;101975.81;12259516;19;20104;-82
2022/12/27 14:50:29;;;;;;;1.70;1.60;;;9.90;58.70;;;8.59;64.03;101979.31;12254554;19;20031;-81
2022/12/27 14:55:17;;;;;;;4.70;1.52;;;9.90;58.70;;;8.57;64.09;101970.69;12255366;19;20015;-81
2022/12/27 14:59:39;;;;;;;7.90;2.03;;;9.90;58.50;;;8.54;64.17;101975.97;12256642;19;20021;-81
2022/12/27 15:03:57;;;;;;;3.63;1.67;;;9.90;58.70;;;8.54;64.05;101987.25;12256218;19;20025;-81
2022/12/27 15:08:45;;;;;;;1.65;1.50;;;9.80;58.60;;;8.51;64.04;101984.72;12255956;19;20101;-81
2022/12/27 15:13:13;;;;;;;4.43;1.95;;;9.80;58.60;;;8.40;63.93;101976.34;12257543;19;20018;-81
2022/12/27 15:17:40;;;;;;;3.92;1.77;;;9.80;58.50;;;8.46;64.04;101985.75;12255713;19;20402;-82
2022/12/27 15:21:56;;;;;;;1.73;1.40;;;9.70;58.60;;;8.41;63.79;101985.84;12248670;19;20019;-81
2022/12/27 15:26:28;;;;;;;3.03;1.48;;;9.70;58.60;;;8.30;63.71;101974.84;12248414;19;20015;-81
2022/12/27 15:30:59;;;;;;;2.13;1.70;;;9.70;58.60;;;8.33;63.77;101991.22;12240587;19;20100;-81
2022/12/27 15:35:17;;;;;;;1.95;1.75;;;9.60;58.70;;;8.30;63.87;101988.69;12246256;19;20019;-82
2022/12/27 15:39:34;;;;;;;2.90;1.63;;;9.60;58.70;;;8.28;63.60;101989.63;12240849;19;20073;-81
2022/12/27 15:44:03;;;;;;;1.80;1.70;;;9.60;58.70;;;8.15;63.67;101973.47;12249575;19;20043;-81
2022/12/27 15:48:05;;;;;;;3.05;1.60;;;9.50;58.80;;;8.22;63.87;101976.78;12247194;19;20011;-82
2022/12/27 15:52:45;;;;;;;2.00;1.80;;;9.50;58.80;;;8.15;63.57;101979.50;12248673;19;20457;-80
2022/12/27 15:56:53;;;;;;;1.92;1.73;;;9.40;58.90;;;8.12;63.63;101979.59;12245032;19;20418;-81
2022/12/27 16:01:16;;;;;;;3.40;1.88;;;9.40;58.90;;;8.08;63.57;101971.94;12242417;19;20014;-80
2022/12/27 16:05:20;;;;;;;2.63;2.33;;;9.30;58.90;;;8.06;63.73;101981.50;12250798;19;20006;-81
2022/12/27 16:09:25;;;;;;;2.30;2.10;;;9.30;59.00;;;8.03;63.71;101972.03;12245641;19;20527;-81
2022/12/27 16:13:34;;;;;;;3.17;2.40;;;9.30;59.00;;;8.01;63.83;101976.41;12245140;19;20022;-81
2022/12/27 16:17:53;;;;;;;3.92;2.28;;;9.20;59.10;;;7.96;63.61;101973.91;12249201;19;20505;-81
2022/12/27 16:21:55;;;;;;;2.97;2.13;;;9.20;59.10;;;7.84;63.63;101958.63;12241043;19;20014;-81
2022/12/27 16:26:22;;;;;;;2.75;2.28;;;9.20;59.10;;;7.91;63.72;101980.13;12252350;19;20502;-81
2022/12/27 16:30:46;;;;;;;2.15;1.65;;;9.10;59.10;;;7.82;63.73;101973.41;12254459;19;20021;-81
2022/12/27 16:34:54;;;;;;;2.80;1.90;;;9.10;59.10;;;7.85;63.65;101977.66;12257021;19;20014;-82
2022/12/27 16:39:10;;;;;;;2.17;1.98;;;9.10;59.20;;;7.81;63.64;101989.06;12257066;19;20018;-81
2022/12/27 16:43:18;;;;;;;3.97;2.28;;;9.00;59.10;;;7.78;63.48;101992.56;12258691;19;20011;-81
2022/12/27 16:47:56;;;;;;;2.50;1.98;;;9.00;59.20;;;7.68;63.62;101993.66;12256762;19;20014;-81
2022/12/27 16:52:32;;;;;;;2.40;2.05;;;9.00;59.10;;;7.67;63.64;102011.03;12254085;19;20022;-81
2022/12/27 16:56:37;;;;;;;4.10;2.03;;;9.00;59.20;;;7.56;63.73;101988.72;12261718;19;20031;-81
2022/12/27 17:00:46;;;;;;;2.67;2.47;;;8.90;59.30;;;7.54;63.73;101986.19;12253832;19;20014;-81
2022/12/27 17:04:59;;;;;;;3.47;2.22;;;8.80;59.30;;;7.49;63.76;101983.69;12256411;19;20014;-81
2022/12/27 17:09:07;;;;;;;2.25;2.05;;;8.80;59.20;;;7.54;63.75;101992.22;12254404;19;20018;-81
2022/12/27 17:13:20;;;;;;;3.75;2.22;;;8.70;59.20;;;7.37;63.64;101967.50;12255627;19;20014;-81
2022/12/27 17:17:23;;;;;;;2.83;2.03;;;8.70;59.30;;;7.27;63.53;101961.66;12257137;19;20023;-81
2022/12/27 17:21:32;;;;;;;3.95;2.33;;;8.70;59.30;;;7.32;63.58;101981.44;12251437;19;20010;-81
2022/12/27 17:25:49;;;;;;;2.85;2.40;;;8.60;59.20;;;7.22;63.44;101973.88;12254351;19;20022;-81
2022/12/27 17:30:21;;;;;;;4.25;2.78;;;8.60;59.30;;;7.29;63.61;101993.63;12250393;19;20018;-81
2022/12/27 17:35:01;;;;;;;3.30;2.22;;;8.60;59.30;;;7.31;63.44;102010.06;12253543;19;20018;-82
2022/12/27 17:39:18;;;;;;;3.55;1.92;;;8.50;59.30;;;7.28;63.55;102008.38;12253968;19;20018;-81
2022/12/27 17:48:30;;;;;;;2.75;2.33;;;8.50;59.40;;;7.18;63.42;102006.00;12261086;19;20046;-81
2022/12/27 18:01:20;;;;;;;4.50;2.28;;;8.40;59.40;;;7.02;63.64;101998.53;12257321;19;20425;-82
2022/12/27 18:05:32;;;;;;;3.25;1.98;;;8.40;59.40;;;6.97;63.44;101999.50;12254829;19;20062;-82
2022/12/27 18:09:50;;;;;;;2.50;1.90;;;8.30;59.30;;;6.89;63.41;101989.28;12253799;19;20018;-82
2022/12/27 18:13:57;;;;;;;2.50;1.77;;;8.20;59.30;;;6.90;63.50;101997.91;12253754;19;20019;-81
2022/12/27 18:18:07;;;;;;;2.08;1.70;;;8.20;59.40;;;6.76;63.68;101975.66;12253792;19;20010;-81
2022/12/27 18:22:18;;;;;;;4.68;2.40;;;8.10;59.40;;;6.80;63.55;101989.44;12252069;19;20006;-81
2022/12/27 18:26:37;;;;;;;2.00;1.90;;;8.10;59.40;;;6.78;63.57;102001.59;12253520;19;20019;-82
2022/12/27 18:30:45;;;;;;;2.22;1.92;;;8.00;59.40;;;6.74;63.61;101994.75;12251692;19;20014;-81
2022/12/27 18:34:55;;;;;;;2.72;2.05;;;8.00;59.40;;;6.57;63.56;101980.34;12254570;19;20067;-82
2022/12/27 18:39:17;;;;;;;1.80;1.58;;;8.00;59.50;;;6.68;63.40;102006.09;12250881;19;20030;-81
2022/12/27 18:43:19;;;;;;;2.58;2.00;;;7.90;59.40;;;6.54;63.53;101979.56;12255269;19;20579;-82
2022/12/27 18:47:24;;;;;;;2.25;1.67;;;7.90;59.50;;;6.58;63.57;101989.81;12252953;19;20467;-82
2022/12/27 18:51:53;;;;;;;3.35;2.30;;;8.00;59.60;;;6.51;63.63;101984.78;12252117;19;20013;-81
2022/12/27 18:56:13;;;;;;;3.70;2.17;;;7.80;59.60;;;6.42;63.64;101970.22;12250394;19;20461;-81
2022/12/27 19:00:25;;;;;;;1.67;1.58;;;7.80;59.60;;;6.48;63.76;101990.91;12251243;19;20006;-81
2022/12/27 19:04:31;;;;;;;2.10;1.77;;;7.70;59.60;;;6.44;63.69;101989.22;12255800;19;20036;-82
2022/12/27 19:08:48;;;;;;;2.40;1.88;;;7.70;59.60;;;6.38;63.80;101973.78;12253005;19;20478;-82
2022/12/27 19:12:51;;;;;;;1.98;1.88;;;7.70;59.60;;;6.41;63.70;101981.50;12255269;19;20014;-81
2022/12/27 19:16:59;;;;;;;2.58;2.15;;;7.60;59.60;;;6.12;63.66;101930.97;12254360;19;20025;-82
2022/12/27 19:21:04;;;;;;;3.00;2.20;;;7.60;59.60;;;6.27;63.73;101965.31;12247965;19;20059;-81
2022/12/27 19:25:23;;;;;;;2.65;2.40;;;7.60;59.70;;;6.34;63.37;101975.53;12249320;19;20018;-82
2022/12/27 19:29:30;;;;;;;2.55;2.35;;;7.60;59.60;;;6.30;63.52;101968.72;12250570;19;20019;-81
2022/12/27 19:33:34;;;;;;;3.90;2.47;;;7.60;59.70;;;6.24;63.76;101960.16;12252928;19;20002;-81
2022/12/27 19:37:36;;;;;;;2.92;2.35;;;7.50;59.60;;;6.24;63.57;101971.44;12248778;19;20018;-82
2022/12/27 19:41:38;;;;;;;2.78;2.25;;;7.50;59.70;;;6.15;63.78;101956.84;12246727;19;20048;-81
2022/12/27 19:45:39;;;;;;;3.17;2.78;;;7.50;59.70;;;6.24;63.55;101974.03;12242270;19;20039;-81
2022/12/27 19:49:41;;;;;;;4.15;2.58;;;7.60;59.70;;;6.22;63.48;101972.34;12245105;19;20086;-81
2022/12/27 19:53:49;;;;;;;3.47;2.58;;;7.80;59.70;;;6.20;63.52;101972.34;12239421;19;20011;-81